Time;durP1;ratioP1;P1;durP2;ratioP2;P2;SDS_P1;SDS_P2;PMS_P1;PMS_P2;Temp;Humidity;BMP_temperature;BMP_pressure;BME280_temperature;BME280_humidity;BME280_pressure;Samples;Min_cycle;Max_cycle;Signal;HPM_P1;HPM_P2
2022/07/06 00:02:20;;;;;;;4.07;1.30;;;;;;;13.19;100.00;101531.31;5071426;28;20439;-82
2022/07/06 00:04:54;;;;;;;3.47;1.27;;;;;;;13.21;100.00;101529.13;5052959;28;20433;-82
2022/07/06 00:07:27;;;;;;;4.40;1.20;;;;;;;13.18;100.00;101526.16;5052708;28;20428;-83
2022/07/06 00:10:00;;;;;;;2.90;1.10;;;;;;;13.18;100.00;101529.69;5060232;28;20421;-82
2022/07/06 00:12:30;;;;;;;7.00;1.20;;;;;;;13.17;100.00;101525.31;5047527;28;20435;-82
2022/07/06 00:15:04;;;;;;;4.90;1.23;;;;;;;13.16;100.00;101525.59;5068969;28;20464;-83
2022/07/06 00:17:37;;;;;;;6.55;1.20;;;;;;;13.10;100.00;101525.63;5053617;28;20432;-83
2022/07/06 00:20:11;;;;;;;3.22;1.10;;;;;;;13.07;100.00;101523.41;5069208;28;20424;-83
2022/07/06 00:22:39;;;;;;;4.57;1.38;;;;;;;13.10;100.00;101522.03;5072683;28;20426;-83
2022/07/06 00:25:12;;;;;;;3.22;1.23;;;;;;;12.96;100.00;101526.44;5053423;28;20779;-82
2022/07/06 00:27:46;;;;;;;2.87;1.20;;;;;;;13.09;100.00;101517.66;5051046;28;20427;-83
2022/07/06 00:30:20;;;;;;;4.57;1.40;;;;;;;12.98;100.00;101524.25;5050393;28;20416;-82
2022/07/06 00:32:53;;;;;;;2.38;1.15;;;;;;;13.02;100.00;101523.44;5051836;28;20904;-82
2022/07/06 00:35:26;;;;;;;4.50;1.40;;;;;;;12.80;100.00;101517.44;5071597;28;20426;-83
2022/07/06 00:37:59;;;;;;;3.80;1.20;;;;;;;12.81;100.00;101519.09;5053063;28;20780;-83
2022/07/06 00:40:33;;;;;;;4.40;1.48;;;;;;;12.68;100.00;101520.47;5053272;28;20435;-83
2022/07/06 00:43:07;;;;;;;5.15;1.30;;;;;;;12.59;100.00;101510.09;5067819;28;20422;-81
2022/07/06 00:45:41;;;;;;;5.88;1.42;;;;;;;12.61;100.00;101508.97;5073422;28;20909;-83
2022/07/06 00:48:09;;;;;;;2.15;1.20;;;;;;;12.64;100.00;101513.91;5072763;28;20418;-83
2022/07/06 00:50:43;;;;;;;3.70;1.20;;;;;;;12.62;100.00;101516.09;5050706;28;20424;-83
2022/07/06 00:53:16;;;;;;;5.43;1.30;;;;;;;12.58;100.00;101530.28;5053183;28;20417;-83
2022/07/06 00:55:44;;;;;;;4.15;1.30;;;;;;;12.65;100.00;101542.84;5033133;28;20436;-83
2022/07/06 00:58:19;;;;;;;3.63;1.10;;;;;;;12.57;100.00;101525.91;5033073;28;20433;-83
2022/07/06 01:00:47;;;;;;;2.42;1.17;;;;;;;12.68;100.00;101524.00;5050865;28;20422;-83
2022/07/06 01:03:20;;;;;;;4.65;1.30;;;;;;;12.74;100.00;101525.63;5061402;28;20419;-83
2022/07/06 01:05:48;;;;;;;3.95;1.10;;;;;;;12.78;100.00;101522.38;5047542;28;20443;-83
2022/07/06 01:08:17;;;;;;;3.63;1.10;;;;;;;12.82;100.00;101518.81;5057823;28;20482;-83
2022/07/06 01:10:51;;;;;;;5.40;1.23;;;;;;;12.93;100.00;101530.56;5069438;28;20764;-83
2022/07/06 01:13:20;;;;;;;3.08;1.10;;;;;;;12.90;100.00;101531.91;5069724;28;20800;-83
2022/07/06 01:15:54;;;;;;;3.42;1.20;;;;;;;12.71;100.00;101514.44;5051616;28;20446;-82
2022/07/06 01:18:27;;;;;;;5.88;1.20;;;;;;;12.88;100.00;101527.81;5039220;28;20429;-82
2022/07/06 01:21:08;;;;;;;2.60;1.08;;;;;;;12.95;100.00;101524.81;5062100;28;20785;-82
2022/07/06 01:23:43;;;;;;;3.03;1.07;;;;;;;13.04;100.00;101523.97;5048882;28;20524;-83
2022/07/06 01:26:13;;;;;;;3.65;1.25;;;;;;;13.08;100.00;101522.31;5067849;28;20717;-85
2022/07/06 01:28:42;;;;;;;2.93;1.13;;;;;;;13.07;100.00;101525.34;5049417;28;20415;-84
2022/07/06 01:31:18;;;;;;;2.88;1.10;;;;;;;13.07;100.00;101523.41;5048628;28;20412;-83
2022/07/06 01:33:53;;;;;;;4.47;1.30;;;;;;;13.05;100.00;101522.88;5040523;28;20421;-84
2022/07/06 01:36:28;;;;;;;3.58;1.00;;;;;;;13.01;100.00;101518.22;5050069;28;20452;-83
2022/07/06 01:39:01;;;;;;;4.75;1.35;;;;;;;13.05;100.00;101517.41;5064587;28;20961;-83
2022/07/06 01:41:30;;;;;;;3.38;1.00;;;;;;;13.10;100.00;101522.03;5059223;28;20408;-82
2022/07/06 01:44:04;;;;;;;3.60;1.10;;;;;;;13.12;100.00;101519.88;5048801;28;20419;-84
2022/07/06 01:46:39;;;;;;;3.17;1.30;;;;;;;13.00;100.00;101497.50;5039283;28;20454;-83
2022/07/06 01:49:12;;;;;;;3.50;1.20;;;;;;;12.97;100.00;101526.19;5066069;28;20429;-83
2022/07/06 01:51:47;;;;;;;2.70;0.93;;;;;;;13.03;100.00;101522.31;5073569;28;20425;-83
2022/07/06 01:54:15;;;;;;;4.45;1.20;;;;;;;13.01;100.00;101516.34;5036635;28;20444;-82
2022/07/06 01:56:48;;;;;;;2.60;1.20;;;;;;;13.02;100.00;101514.41;5041001;28;20423;-83
2022/07/06 01:59:17;;;;;;;4.57;1.30;;;;;;;13.08;100.00;101508.66;5039255;28;20421;-83
2022/07/06 02:01:46;;;;;;;4.07;1.20;;;;;;;12.97;100.00;101508.94;5087565;28;20418;-82
2022/07/06 02:04:19;;;;;;;3.60;1.08;;;;;;;13.05;100.00;101508.38;5068970;28;20410;-82
2022/07/06 02:06:54;;;;;;;6.07;1.30;;;;;;;13.01;100.00;101513.59;5061338;28;20442;-82
2022/07/06 02:09:27;;;;;;;3.42;1.00;;;;;;;12.96;100.00;101515.53;5049838;28;20431;-84
2022/07/06 02:11:56;;;;;;;2.97;1.25;;;;;;;12.92;100.00;101512.50;5071815;28;20444;-84
2022/07/06 02:14:29;;;;;;;4.45;1.23;;;;;;;12.95;100.00;101511.16;5048460;28;20420;-84
2022/07/06 02:17:03;;;;;;;6.73;1.40;;;;;;;12.91;100.00;101513.59;5048379;28;20494;-82
2022/07/06 02:19:36;;;;;;;1.98;1.00;;;;;;;12.98;100.00;101522.34;5039353;28;20427;-83
2022/07/06 02:22:10;;;;;;;6.13;1.30;;;;;;;12.92;100.00;101518.78;5043280;28;20431;-82
2022/07/06 02:24:44;;;;;;;5.72;1.15;;;;;;;12.84;100.00;101524.84;5048096;28;20430;-83
2022/07/06 02:27:17;;;;;;;3.97;1.20;;;;;;;12.76;100.00;101517.19;5047880;28;20784;-83
2022/07/06 02:29:50;;;;;;;4.07;1.30;;;;;;;12.70;100.00;101515.53;5048366;28;20414;-83
2022/07/06 02:32:24;;;;;;;4.13;1.37;;;;;;;12.66;100.00;101522.63;5065373;28;20480;-83
2022/07/06 02:34:58;;;;;;;2.35;1.00;;;;;;;12.75;100.00;101521.00;5073819;28;20791;-84
2022/07/06 02:37:28;;;;;;;4.38;1.35;;;;;;;12.72;100.00;101522.38;5051232;28;20427;-84
2022/07/06 02:40:01;;;;;;;2.78;1.10;;;;;;;12.80;100.00;101522.91;5052544;28;20423;-83
2022/07/06 02:42:35;;;;;;;4.35;1.30;;;;;;;12.80;100.00;101512.81;5066843;28;20426;-82
2022/07/06 02:45:11;;;;;;;3.42;1.27;;;;;;;12.67;100.00;101514.16;5048206;28;20415;-83
2022/07/06 02:47:44;;;;;;;2.47;1.02;;;;;;;12.74;100.00;101506.50;5065949;28;20419;-83
2022/07/06 02:50:18;;;;;;;2.88;1.10;;;;;;;12.87;100.00;101510.63;5040682;28;20424;-83
2022/07/06 02:52:48;;;;;;;3.15;1.20;;;;;;;12.92;100.00;101517.97;5053498;28;20902;-82
2022/07/06 02:55:21;;;;;;;3.87;1.30;;;;;;;13.00;100.00;101520.16;5049753;28;20912;-85
2022/07/06 02:57:55;;;;;;;2.00;1.00;;;;;;;13.01;100.00;101530.00;5047747;28;20415;-83
2022/07/06 03:00:30;;;;;;;3.57;1.10;;;;;;;12.91;100.00;101525.38;5051524;28;20430;-84
2022/07/06 03:03:04;;;;;;;2.85;1.10;;;;;;;12.90;100.00;101521.00;5050903;28;20455;-82
2022/07/06 03:05:38;;;;;;;3.15;1.00;;;;;;;12.92;100.00;101532.44;5044284;28;20427;-81
2022/07/06 03:08:12;;;;;;;2.10;0.90;;;;;;;12.75;100.00;101521.00;5059195;28;20778;-81
2022/07/06 03:10:42;;;;;;;1.25;0.60;;;;;;;12.72;100.00;101508.72;5052128;28;20420;-81
2022/07/06 03:13:15;;;;;;;0.90;0.60;;;;;;;12.73;100.00;101504.91;5051571;28;20415;-84
2022/07/06 03:15:48;;;;;;;1.38;0.60;;;;;;;12.67;100.00;101507.91;5051648;28;20888;-81
2022/07/06 03:18:22;;;;;;;1.55;0.63;;;;;;;12.68;100.00;101512.28;5048056;28;20424;-82
2022/07/06 03:20:55;;;;;;;2.13;0.50;;;;;;;12.72;100.00;101516.09;5059477;28;20776;-82
2022/07/06 03:23:25;;;;;;;1.85;0.65;;;;;;;12.64;100.00;101506.53;5048140;28;20846;-83
2022/07/06 03:25:53;;;;;;;2.10;0.68;;;;;;;12.69;100.00;101514.72;5068355;28;20418;-82
2022/07/06 03:28:26;;;;;;;2.20;0.50;;;;;;;12.68;100.00;101515.81;5069930;28;20486;-83
2022/07/06 03:31:00;;;;;;;1.10;0.60;;;;;;;12.65;100.00;101519.09;5051646;28;20432;-82
2022/07/06 03:33:34;;;;;;;2.40;0.68;;;;;;;12.69;100.00;101528.38;5049888;28;20431;-81
2022/07/06 03:36:02;;;;;;;1.08;0.50;;;;;;;12.61;100.00;101531.66;5059385;28;21097;-81
2022/07/06 03:38:38;;;;;;;0.97;0.43;;;;;;;12.67;100.00;101532.47;5041924;28;20519;-81
2022/07/06 03:41:11;;;;;;;3.08;0.70;;;;;;;12.62;100.00;101532.47;5053054;28;20423;-82
2022/07/06 03:43:45;;;;;;;0.93;0.63;;;;;;;12.70;100.00;101527.25;5059771;28;20884;-83
2022/07/06 03:46:14;;;;;;;1.35;0.60;;;;;;;12.60;100.00;101530.00;5049845;28;20429;-84
2022/07/06 03:48:42;;;;;;;1.50;0.50;;;;;;;12.56;100.00;101524.25;5063888;28;20421;-83
2022/07/06 03:51:11;;;;;;;2.15;0.60;;;;;;;12.49;100.00;101518.25;5071242;28;20418;-85
2022/07/06 03:53:41;;;;;;;1.77;0.63;;;;;;;12.60;100.00;101532.75;5051304;28;20439;-83
2022/07/06 03:56:31;;;;;;;2.45;0.70;;;;;;;12.48;100.00;101518.53;5059763;28;20438;-83
2022/07/06 03:59:08;;;;;;;2.00;0.80;;;;;;;12.62;100.00;101518.81;5030715;28;20417;-84
2022/07/06 04:01:42;;;;;;;2.10;0.70;;;;;;;12.63;100.00;101518.53;5053158;28;20411;-85
2022/07/06 04:04:13;;;;;;;3.20;0.73;;;;;;;12.65;100.00;101510.06;5051144;28;20844;-84
2022/07/06 04:06:48;;;;;;;3.13;0.80;;;;;;;12.70;100.00;101512.81;5050945;28;20411;-84
2022/07/06 04:09:20;;;;;;;1.92;0.80;;;;;;;12.70;100.00;101516.34;5049293;28;20485;-83
2022/07/06 04:11:53;;;;;;;3.40;0.80;;;;;;;12.73;100.00;101512.25;5067670;28;20410;-84
2022/07/06 04:14:28;;;;;;;1.13;0.65;;;;;;;12.80;100.00;101523.75;5061238;28;20430;-83
2022/07/06 04:17:51;;;;;;;2.33;0.65;;;;;;;12.75;100.00;101519.06;5046334;28;20426;-84
2022/07/06 04:19:57;;;;;;;2.13;0.70;;;;;;;12.85;100.00;101523.72;5061707;28;20779;-83
2022/07/06 04:22:25;;;;;;;1.60;0.80;;;;;;;12.72;100.00;101513.38;5068757;28;20433;-85
2022/07/06 04:25:00;;;;;;;2.70;0.85;;;;;;;12.76;100.00;101511.72;5067515;28;20446;-83
2022/07/06 04:27:33;;;;;;;2.92;0.80;;;;;;;12.92;100.00;101520.72;5066902;28;20431;-84
2022/07/06 04:30:02;;;;;;;2.00;0.80;;;;;;;12.89;100.00;101530.25;5067152;28;20420;-84
2022/07/06 04:32:30;;;;;;;2.88;1.00;;;;;;;13.00;100.00;101531.09;5065767;28;20473;-84
2022/07/06 04:35:05;;;;;;;2.25;0.90;;;;;;;13.01;100.00;101527.25;5066635;28;20863;-83
2022/07/06 04:37:34;;;;;;;2.10;0.98;;;;;;;12.98;100.00;101529.72;5065638;28;20427;-83
2022/07/06 04:40:10;;;;;;;3.60;0.97;;;;;;;13.13;100.00;101523.41;5067126;28;20424;-83
2022/07/06 04:42:38;;;;;;;2.45;0.90;;;;;;;13.06;100.00;101520.97;5055613;28;20427;-84
2022/07/06 04:45:12;;;;;;;1.65;0.80;;;;;;;13.09;100.00;101529.44;5066968;28;20415;-83
2022/07/06 04:47:45;;;;;;;4.18;0.93;;;;;;;13.25;100.00;101529.41;5066751;28;20800;-82
2022/07/06 04:50:19;;;;;;;2.00;0.90;;;;;;;13.26;100.00;101526.38;5066156;28;20797;-84
2022/07/06 04:52:55;;;;;;;1.88;0.85;;;;;;;13.28;100.00;101526.09;5060079;28;20950;-83
2022/07/06 04:55:31;;;;;;;1.60;0.90;;;;;;;13.31;100.00;101532.94;5066094;28;20684;-84
2022/07/06 04:58:04;;;;;;;2.20;1.10;;;;;;;13.26;100.00;101526.38;5068317;28;20430;-83
2022/07/06 05:00:33;;;;;;;3.75;1.00;;;;;;;13.31;100.00;101524.72;5047355;28;20774;-84
2022/07/06 05:03:02;;;;;;;3.42;0.80;;;;;;;13.33;100.00;101519.81;5062118;28;20442;-83
2022/07/06 05:05:36;;;;;;;1.80;0.70;;;;;;;13.41;100.00;101524.75;5066015;28;20931;-82
2022/07/06 05:08:10;;;;;;;1.30;0.60;;;;;;;13.49;100.00;101521.44;5064935;28;20444;-82
2022/07/06 05:10:40;;;;;;;5.15;0.82;;;;;;;13.49;100.00;101517.88;5065178;28;20430;-84
2022/07/06 05:13:09;;;;;;;4.85;0.95;;;;;;;13.52;100.00;101533.72;5066199;28;20428;-83
2022/07/06 05:15:38;;;;;;;3.20;1.00;;;;;;;13.53;100.00;101517.03;5065905;28;20423;-82
2022/07/06 05:18:11;;;;;;;2.92;0.82;;;;;;;13.56;100.00;101532.06;5059850;28;20433;-82
2022/07/06 05:20:45;;;;;;;2.50;0.93;;;;;;;13.63;100.00;101543.53;5059110;28;20426;-83
2022/07/06 05:23:18;;;;;;;6.75;0.90;;;;;;;13.60;100.00;101539.44;5063011;28;20792;-83
2022/07/06 05:25:52;;;;;;;3.25;0.90;;;;;;;13.63;100.00;101535.34;5059789;28;20430;-82
2022/07/06 05:28:21;;;;;;;3.30;1.00;;;;;;;13.62;100.00;101528.22;5057544;28;20903;-83
2022/07/06 05:30:55;;;;;;;3.15;0.90;;;;;;;13.60;100.00;101536.72;5065057;28;20440;-81
2022/07/06 05:33:29;;;;;;;3.53;1.05;;;;;;;13.63;100.00;101542.72;5065430;28;20419;-82
2022/07/06 05:35:58;;;;;;;2.92;0.80;;;;;;;13.66;100.00;101544.88;5064555;28;20431;-85
2022/07/06 05:38:32;;;;;;;3.20;1.00;;;;;;;13.43;100.00;101547.16;5064000;28;20524;-81
2022/07/06 05:41:08;;;;;;;2.03;0.80;;;;;;;13.45;100.00;101544.97;5057763;28;20428;-81
2022/07/06 05:43:41;;;;;;;1.60;0.70;;;;;;;13.35;100.00;101545.78;5058579;28;20749;-81
2022/07/06 05:46:15;;;;;;;1.92;0.75;;;;;;;13.27;100.00;101549.06;5065567;28;20915;-83
2022/07/06 05:51:35;;;;;;;1.63;0.80;;;;;;;13.36;100.00;101555.63;5065750;28;20488;-82
2022/07/06 05:54:08;;;;;;;2.90;0.80;;;;;;;13.36;100.00;101550.19;5064348;28;20426;-84
2022/07/06 05:56:43;;;;;;;4.82;1.00;;;;;;;13.48;100.00;101540.84;5057309;28;20431;-82
2022/07/06 05:59:17;;;;;;;3.67;0.98;;;;;;;13.56;100.00;101540.25;5060458;28;20432;-82
2022/07/06 06:01:50;;;;;;;5.07;0.88;;;;;;;13.61;100.00;101532.84;5064774;28;20450;-82
2022/07/06 06:04:25;;;;;;;2.97;1.00;;;;;;;13.77;100.00;101541.84;5063281;28;20427;-84
2022/07/06 06:06:58;;;;;;;5.20;0.90;;;;;;;13.65;100.00;101546.81;5047742;28;20423;-83
2022/07/06 06:09:31;;;;;;;3.95;0.90;;;;;;;13.61;100.00;101548.47;5053473;28;20452;-81
2022/07/06 06:12:07;;;;;;;3.08;0.70;;;;;;;13.66;100.00;101547.63;5070343;28;20796;-82
2022/07/06 06:14:40;;;;;;;2.75;0.85;;;;;;;13.60;100.00;101550.38;5056202;28;20430;-82
2022/07/06 06:17:13;;;;;;;1.83;0.63;;;;;;;13.57;100.00;101544.66;5055307;28;20426;-84
2022/07/06 06:19:46;;;;;;;3.90;1.00;;;;;;;13.53;100.00;101559.97;5052381;28;20454;-82
2022/07/06 06:22:20;;;;;;;4.15;0.95;;;;;;;13.58;100.00;101544.38;5061965;28;20431;-83
2022/07/06 06:24:53;;;;;;;3.00;0.90;;;;;;;13.72;100.00;101550.06;5068982;28;20781;-84
2022/07/06 06:27:23;;;;;;;2.42;0.85;;;;;;;13.76;100.00;101542.94;5056089;28;20442;-84
2022/07/06 06:29:56;;;;;;;1.98;0.77;;;;;;;13.99;100.00;101548.84;5081771;28;20798;-83
2022/07/06 06:32:24;;;;;;;4.78;1.00;;;;;;;14.06;100.00;101552.09;5068289;28;20427;-82
2022/07/06 06:34:52;;;;;;;4.13;0.90;;;;;;;14.12;100.00;101552.88;5060310;28;20930;-83
2022/07/06 06:37:25;;;;;;;2.20;0.70;;;;;;;14.16;100.00;101553.16;5063583;28;20930;-83
2022/07/06 06:39:59;;;;;;;4.47;0.90;;;;;;;14.13;100.00;101560.00;5063372;28;20438;-83
2022/07/06 06:42:36;;;;;;;1.90;0.70;;;;;;;14.17;100.00;101552.03;5055243;28;20421;-87
2022/07/06 06:45:13;;;;;;;2.55;0.80;;;;;;;14.32;100.00;101562.91;5058903;28;20430;-82
2022/07/06 06:47:46;;;;;;;3.38;0.90;;;;;;;14.41;100.00;101558.44;5060360;28;20413;-81
2022/07/06 06:50:20;;;;;;;3.90;1.00;;;;;;;14.35;100.00;101539.59;5064969;28;20438;-83
2022/07/06 06:52:53;;;;;;;3.67;0.95;;;;;;;14.62;100.00;101561.03;5067789;28;20918;-86
2022/07/06 06:55:21;;;;;;;4.65;0.90;;;;;;;14.64;100.00;101561.63;5067618;28;20427;-87
2022/07/06 06:57:55;;;;;;;2.30;0.82;;;;;;;14.80;100.00;101573.25;5061764;28;20456;-88
2022/07/06 07:00:29;;;;;;;3.87;0.90;;;;;;;14.96;100.00;101571.22;5066758;28;20419;-87
2022/07/06 07:03:02;;;;;;;2.83;0.88;;;;;;;14.95;100.00;101569.56;5069022;28;20712;-85
2022/07/06 07:05:33;;;;;;;3.75;0.90;;;;;;;15.05;100.00;101569.50;5068787;28;20431;-86
2022/07/06 07:08:02;;;;;;;5.97;0.90;;;;;;;15.43;100.00;101566.91;5066997;28;20796;-86
2022/07/06 07:10:30;;;;;;;14.77;7.88;;;;;;;15.32;100.00;101559.09;5069267;28;20427;-89
2022/07/06 07:13:05;;;;;;;3.53;0.80;;;;;;;15.34;100.00;101571.38;5066964;28;20922;-92
2022/07/06 07:15:38;;;;;;;3.13;1.00;;;;;;;15.30;100.00;101565.69;5064977;28;20772;-87
2022/07/06 07:18:11;;;;;;;4.40;0.90;;;;;;;15.14;100.00;101558.72;5066601;28;20426;-87
2022/07/06 07:20:39;;;;;;;2.78;0.80;;;;;;;15.26;100.00;101555.56;5062846;28;20414;-83
2022/07/06 07:23:12;;;;;;;3.88;1.00;;;;;;;15.28;100.00;101565.13;5025557;28;20950;-85
2022/07/06 07:25:46;;;;;;;4.78;1.00;;;;;;;15.33;100.00;101572.50;5043531;28;20434;-85
2022/07/06 07:28:20;;;;;;;1.83;0.80;;;;;;;15.29;100.00;101568.72;5018387;28;20440;-85
2022/07/06 07:30:50;;;;;;;2.70;1.00;;;;;;;15.33;100.00;101572.50;5018290;28;20425;-87
2022/07/06 07:33:23;;;;;;;3.78;0.90;;;;;;;15.38;100.00;101574.38;5040121;28;20424;-84
2022/07/06 07:35:56;;;;;;;3.58;0.85;;;;;;;15.33;100.00;101560.72;5017478;28;20432;-86
2022/07/06 07:38:24;;;;;;;8.30;0.98;;;;;;;15.25;100.00;101570.41;5011029;28;21416;-86
2022/07/06 07:40:54;;;;;;;5.30;1.08;;;;;;;15.33;100.00;101571.69;5024108;28;20441;-86
2022/07/06 07:43:28;;;;;;;3.40;0.90;;;;;;;15.38;100.00;101568.88;5012186;28;20908;-84
2022/07/06 07:46:01;;;;;;;7.68;1.55;;;;;;;15.34;100.00;101567.84;5003752;28;20425;-85
2022/07/06 07:48:35;;;;;;;3.23;0.90;;;;;;;15.45;100.00;101574.84;5029220;28;20470;-87
2022/07/06 07:51:08;;;;;;;4.22;0.80;;;;;;;15.35;100.00;101567.53;5014124;28;20432;-85
2022/07/06 07:53:41;;;;;;;3.97;0.90;;;;;;;15.48;100.00;101575.09;5024758;28;21077;-84
2022/07/06 07:56:14;;;;;;;3.97;0.87;;;;;;;15.40;100.00;101575.72;5036806;28;20719;-86
2022/07/06 07:58:44;;;;;;;2.50;0.90;;;;;;;15.57;100.00;101564.28;5026849;28;20953;-85
2022/07/06 08:01:22;;;;;;;2.78;0.80;;;;;;;15.75;100.00;101579.16;5030728;28;20421;-86
2022/07/06 08:03:50;;;;;;;3.93;1.00;;;;;;;15.86;100.00;101565.34;5042123;28;20427;-86
2022/07/06 08:06:23;;;;;;;1.90;0.80;;;;;;;16.09;100.00;101575.47;5014541;28;20427;-84
2022/07/06 08:08:57;;;;;;;2.70;1.00;;;;;;;16.09;100.00;101582.91;5020514;28;20608;-84
2022/07/06 08:11:25;;;;;;;6.15;3.10;;;;;;;16.09;100.00;101580.16;5008720;28;20463;-87
2022/07/06 08:13:59;;;;;;;2.40;0.68;;;;;;;15.96;100.00;101574.28;5017619;28;21104;-85
2022/07/06 08:16:33;;;;;;;2.90;0.80;;;;;;;15.84;100.00;101576.63;5026732;28;20424;-86
2022/07/06 08:19:06;;;;;;;2.88;0.75;;;;;;;15.63;100.00;101582.34;5056142;28;20423;-87
2022/07/06 08:21:39;;;;;;;2.88;0.82;;;;;;;15.62;100.00;101582.63;5019568;28;20424;-85
2022/07/06 08:24:08;;;;;;;4.23;0.80;;;;;;;15.63;100.00;101574.09;5019412;28;20989;-86
2022/07/06 08:26:41;;;;;;;2.10;0.70;;;;;;;15.58;100.00;101571.41;5013227;28;20429;-87
2022/07/06 08:29:16;;;;;;;1.47;0.60;;;;;;;15.67;100.00;101585.28;5008434;28;20454;-87
2022/07/06 08:31:49;;;;;;;2.80;0.70;;;;;;;15.53;100.00;101587.91;5036718;28;20435;-88
2022/07/06 08:34:17;;;;;;;3.73;0.70;;;;;;;15.47;100.00;101578.13;5022024;28;20899;-88
2022/07/06 08:36:50;;;;;;;2.97;0.80;;;;;;;15.65;100.00;101585.59;5031439;28;20436;-84
2022/07/06 08:39:24;;;;;;;4.75;0.80;;;;;;;15.46;100.00;101571.81;5011246;28;20424;-87
2022/07/06 08:41:59;;;;;;;1.77;0.80;;;;;;;15.53;100.00;101576.94;5032494;28;20939;-86
2022/07/06 08:44:30;;;;;;;1.35;0.70;;;;;;;15.65;100.00;101590.28;5026395;28;20435;-86
2022/07/06 08:47:06;;;;;;;2.80;0.80;;;;;;;15.83;100.00;101590.66;5024314;28;20416;-84
2022/07/06 08:49:38;;;;;;;2.97;0.60;;;;;;;15.96;100.00;101574.28;5021856;28;20947;-86
2022/07/06 08:52:12;;;;;;;4.05;0.65;;;;;;;16.36;100.00;101581.44;5049623;28;20423;-85
2022/07/06 08:54:40;;;;;;;4.57;0.77;;;;;;;16.63;100.00;101558.78;5049585;28;20836;-88
2022/07/06 08:57:09;;;;;;;1.80;0.57;;;;;;;16.80;100.00;101566.44;5014501;28;21008;-85
2022/07/06 08:59:45;;;;;;;3.15;0.82;;;;;;;16.63;100.00;101556.03;5014935;28;20419;-88
2022/07/06 09:02:21;;;;;;;3.38;0.70;;;;;;;16.59;100.00;101572.28;5013684;28;20427;-85
2022/07/06 09:04:52;;;;;;;4.40;0.65;;;;;;;16.58;100.00;101570.63;5025623;28;20439;-87
2022/07/06 09:07:28;;;;;;;4.35;0.80;;;;;;;16.69;100.00;101573.25;5046915;28;20922;-89
2022/07/06 09:10:03;;;;;;;2.40;0.70;;;;;;;16.72;100.00;101578.94;5047002;28;20429;-88
2022/07/06 09:12:31;;;;;;;3.63;0.80;;;;;;;16.50;100.00;101576.81;5040281;28;20419;-88
2022/07/06 09:15:01;;;;;;;2.15;0.80;;;;;;;16.26;100.00;101579.66;5025346;28;20960;-83
2022/07/06 09:17:38;;;;;;;2.80;0.90;;;;;;;16.11;100.00;101575.97;5013030;28;20815;-87
2022/07/06 09:20:13;;;;;;;4.68;1.60;;;;;;;15.97;100.00;101586.06;5008814;28;20440;-86
2022/07/06 09:22:46;;;;;;;1.92;0.70;;;;;;;15.77;100.00;101590.69;5031460;28;20419;-88
2022/07/06 09:25:19;;;;;;;3.53;1.00;;;;;;;15.92;100.00;101586.13;5013808;28;20621;-86
2022/07/06 09:27:54;;;;;;;2.17;0.68;;;;;;;15.93;100.00;101593.25;5027694;28;20462;-87
2022/07/06 09:30:29;;;;;;;2.58;0.65;;;;;;;16.06;100.00;101592.56;5012931;28;20435;-86
2022/07/06 09:33:03;;;;;;;2.30;0.70;;;;;;;16.24;100.00;101585.44;5031673;28;20427;-88
2022/07/06 09:35:38;;;;;;;2.25;0.95;;;;;;;16.43;100.00;101579.97;5005514;28;21105;-88
2022/07/06 09:38:08;;;;;;;2.63;0.80;;;;;;;16.71;100.00;101579.25;5009209;28;20452;-88
2022/07/06 09:40:38;;;;;;;1.05;0.50;;;;;;;16.87;100.00;101580.63;5004147;28;21451;-88
2022/07/06 09:43:15;;;;;;;1.63;0.60;;;;;;;16.74;100.00;101584.97;5011875;28;21367;-87
2022/07/06 09:45:52;;;;;;;2.17;0.75;;;;;;;16.67;100.00;101581.78;5027698;28;20789;-86
2022/07/06 09:48:22;;;;;;;2.70;1.07;;;;;;;16.53;100.00;101576.22;5036583;28;20428;-86
2022/07/06 09:50:56;;;;;;;2.42;0.70;;;;;;;16.62;100.00;101590.91;5008074;28;20424;-85
2022/07/06 09:53:30;;;;;;;1.40;0.70;;;;;;;16.39;100.00;101584.41;5010694;28;20825;-86
2022/07/06 09:56:04;;;;;;;2.40;0.75;;;;;;;16.07;100.00;101596.91;5024853;28;20427;-88
2022/07/06 09:58:39;;;;;;;2.72;0.80;;;;;;;16.02;100.00;101593.41;5029639;28;20871;-87
2022/07/06 10:01:10;;;;;;;3.15;0.80;;;;;;;15.65;100.00;101604.78;5007848;28;20800;-88
2022/07/06 10:03:43;;;;;;;2.13;0.60;;;;;;;15.18;100.00;101600.06;5019014;28;20432;-84
2022/07/06 10:06:16;;;;;;;1.55;0.60;;;;;;;14.86;100.00;101615.13;5016069;28;20439;-84
2022/07/06 10:08:46;;;;;;;4.07;1.10;;;;;;;14.66;100.00;101624.34;5031704;28;20427;-84
2022/07/06 10:11:19;;;;;;;1.37;0.77;;;;;;;14.31;100.00;101626.13;5003999;28;21738;-84
2022/07/06 10:13:50;;;;;;;0.98;0.60;;;;;;;14.43;100.00;101629.34;5029361;28;20751;-84
2022/07/06 10:16:25;;;;;;;1.53;0.60;;;;;;;14.33;100.00;101622.03;5025674;28;20934;-83
2022/07/06 10:18:54;;;;;;;1.25;0.60;;;;;;;14.38;100.00;101627.47;5023078;28;20434;-85
2022/07/06 10:21:23;;;;;;;1.77;0.60;;;;;;;14.53;100.00;101623.84;5002703;28;20684;-84
2022/07/06 10:23:59;;;;;;;1.10;0.50;;;;;;;14.80;100.00;101625.31;5028013;28;20518;-84
2022/07/06 10:26:34;;;;;;;2.05;0.70;;;;;;;14.98;100.00;101614.78;5013683;28;20782;-84
2022/07/06 10:29:08;;;;;;;1.80;0.83;;;;;;;15.14;100.00;101624.50;5010364;28;20427;-84
2022/07/06 10:31:46;;;;;;;1.90;0.70;;;;;;;15.66;100.00;101619.34;5026071;28;20439;-84
2022/07/06 10:34:20;;;;;;;2.37;0.70;;;;;;;16.03;100.00;101603.28;5008275;28;20429;-84
2022/07/06 10:36:55;;;;;;;2.33;0.70;;;;;;;16.25;100.00;101598.03;5021958;28;20438;-86
2022/07/06 10:42:44;;;;;;;1.60;0.60;;;;;;;16.41;100.00;101595.91;5009168;28;20428;-91
2022/07/06 10:45:14;;;;;;;1.17;0.50;;;;;;;16.30;100.00;101608.16;5003142;28;20427;-84
2022/07/06 10:47:51;;;;;;;0.85;0.43;;;;;;;16.35;100.00;101604.50;5027752;28;20419;-90
2022/07/06 10:50:35;;;;;;;0.65;0.50;;;;;;;16.48;100.00;101596.34;5005573;28;20439;-88
2022/07/06 10:53:11;;;;;;;0.70;0.40;;;;;;;16.76;100.00;101576.41;5023424;28;20419;-86
2022/07/06 10:55:41;;;;;;;2.10;0.60;;;;;;;17.03;100.00;101583.13;5043730;28;20421;-89
2022/07/06 10:58:15;;;;;;;0.73;0.32;;;;;;;17.25;100.00;101571.47;5007571;28;20431;-85
2022/07/06 11:00:50;;;;;;;3.72;0.50;;;;;;;17.26;100.00;101582.19;5016941;28;20919;-86
2022/07/06 11:03:39;;;;;;;0.95;0.40;;;;;;;17.20;100.00;101585.34;5011754;28;20415;-86
2022/07/06 11:06:15;;;;;;;0.68;0.30;;;;;;;16.82;100.00;101584.28;5033441;28;20901;-86
2022/07/06 11:08:52;;;;;;;1.42;0.32;;;;;;;16.66;100.00;101586.44;5002737;28;20458;-82
2022/07/06 11:11:22;;;;;;;1.38;0.40;;;;;;;17.07;100.00;101576.75;5008258;28;20431;-87
2022/07/06 11:14:01;;;;;;;3.28;0.50;;;;;;;17.55;100.00;101574.75;5030178;28;21213;-84
2022/07/06 11:16:34;;;;;;;0.60;0.40;;;;;;;17.58;100.00;101583.25;5014317;28;20436;-88
2022/07/06 11:19:11;;;;;;;1.17;0.30;;;;;;;17.45;100.00;101578.53;5020812;28;20798;-85
2022/07/06 11:21:46;;;;;;;0.65;0.30;;;;;;;17.25;100.00;101580.56;5027680;28;21098;-86
2022/07/06 11:24:22;;;;;;;1.38;0.50;;;;;;;17.46;100.00;101582.94;5015868;28;20440;-86
2022/07/06 11:26:57;;;;;;;1.60;0.50;;;;;;;17.49;100.00;101583.13;5015565;28;20790;-87
2022/07/06 11:29:31;;;;;;;1.50;0.30;;;;;;;17.36;100.00;101586.69;5016896;28;20462;-85
2022/07/06 11:32:05;;;;;;;1.15;0.45;;;;;;;17.38;100.00;101586.38;5012490;28;20792;-87
2022/07/06 11:34:37;;;;;;;1.17;0.40;;;;;;;17.33;100.00;101579.84;5010946;28;20441;-86
2022/07/06 11:37:12;;;;;;;1.30;0.43;;;;;;;17.43;100.00;101578.84;5009045;28;20437;-84
2022/07/06 11:39:47;;;;;;;0.82;0.38;;;;;;;17.30;100.00;101576.88;5013582;28;20787;-87
2022/07/06 11:42:17;;;;;;;1.50;0.60;;;;;;;17.20;100.00;101577.09;5022782;28;20432;-87
2022/07/06 11:44:48;;;;;;;1.05;0.30;;;;;;;17.22;100.00;101580.34;5032409;28;20431;-86
2022/07/06 11:47:21;;;;;;;1.40;0.40;;;;;;;17.02;100.00;101581.53;5041682;28;20442;-86
2022/07/06 11:49:56;;;;;;;2.65;0.40;;;;;;;16.94;100.00;101572.03;5014012;28;20951;-86